Latest Weather Observations for Cunderdin Airport

IDW60801

Issued at 11:01 am WST Tuesday 3 May 2016 (issued every 30 minutes, with the page automatically refreshed every 10 minutes)

About weather observations | Map of weather stations | Latest weather observations for WA | Other Formats
Station Details ID: 010286 Name: CUNDERDIN AIRFIELD Lat: -31.62 Lon: 117.22 Height: 216.7 m
Data from the previous 72 hours. | See also: Recent months at Cunderdin Airport
Date/Time
WST
Temp
°C
App
Temp
°C
Dew
Point
Rel
Hum
%
Delta-T
°C
Wind Press
QNH
hPa
Press
MSL
hPa
Rain
since 9 am
mm
Dir
 
Spd
km/h
Gust
km/h
Spd
kts
Gust
kts
03/11:00am 16.7 16.6 13.2 80 2.0 ESE 6 7 3 4 1022.7 1022.5 0.0
03/10:30am 16.5 16.2 13.2 81 1.9 ESE 7 13 4 7 1022.8 1022.6 0.0
03/10:00am 15.6 16.4 13.6 88 1.1 E 2 7 1 4 1022.9 1022.7 0.0
03/09:30am 13.8 14.9 13.6 99 0.1 CALM 0 0 0 0 1023.1 1022.9 0.0
03/09:00am 12.4 13.1 12.2 99 0.1 CALM 0 0 0 0 1023.2 1023.0 0.0
03/08:30am 11.0 11.3 10.8 99 0.1 CALM 0 0 0 0 1023.2 1023.0 0.0
03/08:00am 9.8 9.7 9.5 98 0.2 CALM 0 0 0 0 1022.8 1022.6 0.0
03/07:30am 8.6 8.2 8.3 98 0.1 CALM 0 0 0 0 1022.3 1022.1 0.0
03/07:00am 7.8 7.2 7.5 98 0.1 CALM 0 0 0 0 1021.9 1021.7 0.0
03/06:30am 7.7 7.1 7.4 98 0.1 CALM 0 0 0 0 1021.8 1021.6 0.0
03/06:00am 8.1 6.4 7.7 97 0.2 NNW 6 7 3 4 1021.4 1021.2 0.0
03/05:30am 8.8 6.7 8.4 97 0.2 NNW 9 9 5 5 1021.2 1020.9 0.0
03/05:00am 9.2 8.9 8.7 97 0.2 CALM 0 0 0 0 1021.1 1020.8 0.0
03/04:30am 9.0 8.6 8.4 96 0.3 CALM 0 6 0 3 1020.9 1020.6 0.0
03/04:00am 9.9 9.8 9.3 96 0.3 CALM 0 7 0 4 1020.8 1020.5 0.0
03/03:30am 10.6 10.3 10.0 96 0.3 SSW 2 7 1 4 1020.8 1020.5 0.0
03/03:00am 11.1 11.2 10.3 95 0.4 CALM 0 7 0 4 1020.7 1020.4 0.0
03/02:30am 10.6 9.8 9.7 94 0.5 S 4 9 2 5 1020.9 1020.6 0.0
03/02:00am 11.2 9.1 9.8 91 0.7 SSW 11 13 6 7 1020.9 1020.6 0.0
03/01:30am 11.7 10.5 10.4 92 0.7 SW 7 9 4 5 1021.2 1020.9 0.0
03/01:00am 11.8 10.2 10.2 90 0.8 SW 9 11 5 6 1021.1 1020.8 0.0
03/12:30am 11.9 10.9 10.3 90 0.8 SW 6 7 3 4 1021.0 1020.7 0.0
03/12:00am 12.4 11.5 10.6 89 0.9 SW 6 6 3 3 1021.1 1020.8 0.0
 
Date/Time
WST
Temp
°C
App
Temp
°C
Dew
Point
Rel
Hum
%
Delta-T
°C
Wind Press
QNH
hPa
Press
MSL
hPa
Rain
since 9 am
mm
Dir
 
Spd
km/h
Gust
km/h
Spd
kts
Gust
kts
02/11:30pm 12.8 11.8 11.0 89 1.0 SW 7 9 4 5 1021.1 1020.8 0.0
02/11:00pm 12.9 11.4 10.6 86 1.2 SW 9 11 5 6 1021.2 1020.9 0.0
02/10:30pm 14.1 12.5 11.4 84 1.5 SW 11 13 6 7 1021.3 1021.0 0.0
02/10:00pm 15.7 13.1 11.9 78 2.1 SW 17 20 9 11 1021.3 1021.0 0.0
02/09:30pm 16.7 15.3 13.4 81 1.9 SW 13 17 7 9 1021.2 1020.9 0.0
02/09:00pm 16.7 15.4 13.8 83 1.7 WSW 13 17 7 9 1021.3 1021.0 0.0
02/08:30pm 16.1 15.6 13.9 87 1.3 W 9 13 5 7 1021.4 1021.2 0.0
02/08:00pm 15.9 15.4 13.7 87 1.2 W 9 13 5 7 1021.4 1021.2 0.0
02/07:30pm 15.4 14.3 13.2 87 1.2 W 11 11 6 6 1021.1 1020.8 0.0
02/07:00pm 14.9 13.7 12.8 87 1.2 W 11 13 6 7 1021.0 1020.7 0.0
02/06:30pm 15.1 13.7 12.2 83 1.6 W 11 13 6 7 1020.8 1020.5 0.0
02/06:00pm 16.4 14.4 12.6 78 2.1 W 15 17 8 9 1020.6 1020.3 0.0
02/05:30pm 17.4 15.0 12.5 73 2.7 W 17 20 9 11 1019.9 1019.6 0.0
02/05:00pm 18.8 16.1 12.8 68 3.4 W 19 24 10 13 1019.8 1019.5 0.0
02/04:30pm 19.8 17.1 13.0 65 3.9 WSW 19 24 10 13 1020.0 1019.7 0.0
02/04:00pm 20.1 16.8 12.8 63 4.2 WSW 22 28 12 15 1020.1 1019.8 0.0
02/03:30pm 20.3 17.5 13.3 64 4.0 WSW 20 26 11 14 1020.0 1019.7 0.0
02/03:00pm 19.8 17.8 12.8 64 4.0 WSW 15 20 8 11 1020.1 1019.8 0.0
02/02:30pm 20.4 18.4 12.6 61 4.4 W 15 19 8 10 1020.1 1019.8 0.0
02/02:00pm 20.6 18.1 12.3 59 4.7 W 17 26 9 14 1020.3 1020.0 0.0
02/01:30pm 19.6 16.6 12.1 62 4.2 W 19 26 10 14 1020.5 1020.2 0.0
02/01:00pm 19.1 15.8 11.7 62 4.1 W 20 30 11 16 1021.0 1020.7 0.0
02/12:30pm 19.2 17.0 12.0 63 4.0 W 15 20 8 11 1021.3 1021.0 0.0
02/12:00pm 18.1 16.0 11.2 64 3.8 W 13 19 7 10 1021.7 1021.5 0.0
02/11:30am 18.0 16.6 10.9 63 3.9 W 9 32 5 17 1022.1 1021.9 0.0
02/11:00am 17.2 15.7 10.6 65 3.5 WNW 9 15 5 8 1022.7 1022.5 0.0
02/10:30am 16.6 15.4 11.5 72 2.8 W 9 15 5 8 1022.8 1022.6 0.0
02/10:00am 15.5 14.6 11.3 76 2.3 NW 7 13 4 7 1022.9 1022.7 0.0
02/09:30am 13.6 13.6 11.3 86 1.2 W 2 7 1 4 1023.1 1022.9 0.0
02/09:00am 11.9 11.9 9.8 87 1.1 CALM 0 6 0 3 1023.1 1022.9 0.0
02/08:30am 10.4 10.1 8.5 88 0.9 CALM 0 0 0 0 1023.2 1023.0 0.0
02/08:00am 8.1 7.5 7.3 95 0.4 CALM 0 0 0 0 1022.9 1022.7 0.0
02/07:30am 7.2 6.5 6.8 97 0.2 CALM 0 0 0 0 1022.7 1022.5 0.0
02/07:00am 5.8 4.7 5.2 96 0.3 CALM 0 0 0 0 1022.4 1022.2 0.0
02/06:30am 5.8 4.7 5.2 96 0.3 CALM 0 0 0 0 1022.2 1022.0 0.0
02/06:00am 5.9 4.8 5.3 96 0.3 CALM 0 0 0 0 1022.2 1022.0 0.0
02/05:30am 6.3 5.3 5.6 95 0.3 CALM 0 0 0 0 1022.0 1021.8 0.0
02/05:00am 6.5 5.6 5.9 96 0.3 CALM 0 0 0 0 1021.8 1021.6 0.0
02/04:30am 6.3 5.3 5.7 96 0.3 CALM 0 0 0 0 1021.4 1021.2 0.0
02/04:00am 5.7 3.4 5.0 95 0.3 NNW 6 6 3 3 1021.1 1020.8 0.0
02/03:30am 6.5 4.4 5.8 95 0.3 W 6 7 3 4 1021.3 1021.0 0.0
02/03:00am 6.7 4.6 6.0 95 0.3 WSW 6 6 3 3 1021.3 1021.0 0.0
02/02:30am 6.7 4.6 6.0 95 0.3 W 6 7 3 4 1021.5 1021.3 0.0
02/02:00am 6.5 4.4 5.8 95 0.3 WSW 6 7 3 4 1021.7 1021.5 0.0
02/01:30am 6.4 4.3 5.7 95 0.3 NNW 6 9 3 5 1021.7 1021.5 0.0
02/01:00am 6.5 4.4 5.8 95 0.3 N 6 7 3 4 1021.6 1021.4 0.0
02/12:30am 7.1 4.9 6.2 94 0.4 NNW 7 9 4 5 1021.7 1021.5 0.0
02/12:00am 7.8 6.7 6.7 93 0.5 SSW 2 6 1 3 1021.8 1021.6 0.0
 
Date/Time
WST
Temp
°C
App
Temp
°C
Dew
Point
Rel
Hum
%
Delta-T
°C
Wind Press
QNH
hPa
Press
MSL
hPa
Rain
since 9 am
mm
Dir
 
Spd
km/h
Gust
km/h
Spd
kts
Gust
kts
01/11:30pm 8.2 7.5 7.1 93 0.5 CALM 0 6 0 3 1022.0 1021.8 0.0
01/11:00pm 7.9 7.2 6.8 93 0.5 CALM 0 0 0 0 1022.0 1021.8 0.0
01/10:30pm 7.5 5.9 6.4 93 0.5 NE 4 7 2 4 1022.3 1022.1 0.0
01/10:00pm 7.6 5.4 6.2 91 0.6 NNE 7 9 4 5 1022.3 1022.1 0.0
01/09:30pm 8.7 8.1 7.3 91 0.7 CALM 0 0 0 0 1022.5 1022.3 0.0
01/09:00pm 9.1 6.7 7.1 87 0.9 NNE 9 9 5 5 1022.4 1022.2 0.0
01/08:30pm 9.9 8.2 7.5 85 1.2 ENE 6 7 3 4 1022.3 1022.1 0.0
01/08:00pm 12.0 10.0 6.9 71 2.5 ESE 7 9 4 5 1022.4 1022.2 0.0
01/07:30pm 12.2 10.4 7.3 72 2.4 SSE 6 7 3 4 1022.4 1022.2 0.0
01/07:00pm 12.6 10.3 7.3 70 2.6 SSE 9 11 5 6 1022.5 1022.3 0.0
01/06:30pm 12.5 10.3 7.8 73 2.3 S 9 11 5 6 1022.3 1022.1 0.0
01/06:00pm 13.3 10.5 7.1 66 3.0 S 11 13 6 7 1022.0 1021.8 0.0
01/05:30pm 14.7 11.0 6.5 58 4.0 S 15 19 8 10 1021.7 1021.5 0.0
01/05:00pm 15.9 11.9 6.6 54 4.6 SSW 17 20 9 11 1021.4 1021.2 0.0
01/04:30pm 16.5 13.2 6.6 52 4.9 SSW 13 17 7 9 1021.1 1020.8 0.0
01/04:00pm 16.2 13.0 6.9 54 4.6 WSW 13 17 7 9 1021.0 1020.7 0.0
01/03:30pm 16.9 12.8 6.4 50 5.2 SSW 17 20 9 11 1021.2 1020.9 0.0
01/03:00pm 16.6 14.1 6.4 51 5.0 SSW 9 19 5 10 1021.3 1021.0 0.0
01/02:30pm 15.9 13.9 6.3 53 4.7 SW 6 13 3 7 1021.2 1020.9 0.0
01/02:00pm 16.5 14.5 6.9 53 4.8 W 7 15 4 8 1021.2 1020.9 0.0
01/01:30pm 17.2 16.4 8.1 55 4.7 W 2 9 1 5 1021.4 1021.2 0.0
01/01:00pm 16.0 13.7 7.5 57 4.3 W 9 19 5 10 1022.1 1021.9 0.0
01/12:30pm 16.3 13.3 7.5 56 4.4 WSW 13 17 7 9 1022.6 1022.4 0.0
01/12:00pm 15.9 14.0 7.4 57 4.3 SW 7 15 4 8 1023.1 1022.9 0.0
01/11:30am 15.8 14.3 5.1 49 5.1 NW 2 11 1 6 1023.5 1023.3 0.0
01/11:00am 15.2 12.9 7.3 59 3.9 W 9 13 5 7 1023.8 1023.6 0.0
01/10:30am 14.5 13.8 8.5 67 3.1 WNW 2 7 1 4 1024.2 1023.9 0.0
01/10:00am 13.9 13.7 8.9 72 2.5 CALM 0 0 0 0 1024.2 1023.9 0.0
01/09:30am 13.0 12.8 9.1 77 2.0 CALM 0 0 0 0 1024.3 1024.0 0.0
01/09:00am 12.0 11.7 8.5 79 1.7 CALM 0 0 0 0 1024.1 1023.8 0.0
01/08:30am 11.1 10.7 8.3 83 1.4 CALM 0 0 0 0 1023.8 1023.6 0.0
01/08:00am 10.6 10.1 8.0 84 1.3 CALM 0 0 0 0 1023.5 1023.3 0.0
01/07:30am 8.9 8.4 7.7 92 0.6 CALM 0 0 0 0 1023.2 1022.6 0.0
01/07:00am 8.2 7.2 7.3 94 0.4 SSW 2 9 1 5 1022.9 1022.3 0.0
01/06:30am 8.2 7.1 7.1 93 0.5 S 2 9 1 5 1022.8 1022.2 0.0
01/06:00am 8.0 6.2 7.2 95 0.4 NE 6 9 3 5 1022.6 1022.0 0.0
01/05:30am 7.6 6.5 7.0 96 0.3 NE 2 7 1 4 1022.4 1021.8 0.0
01/05:00am 7.5 6.4 6.9 96 0.3 E 2 7 1 4 1022.3 1021.7 0.0
01/04:30am 7.1 6.3 6.7 97 0.2 CALM 0 0 0 0 1022.2 1021.6 0.0
01/04:00am 6.9 6.1 6.5 97 0.2 CALM 0 0 0 0 1022.1 1021.5 0.0
01/03:30am 6.0 5.0 5.6 97 0.2 CALM 0 0 0 0 1022.0 1021.4 0.0
01/03:00am 5.9 4.5 5.3 96 0.3 NW 2 6 1 3 1021.9 1021.3 0.0
01/02:30am 6.5 4.4 5.9 96 0.3 WNW 6 7 3 4 1022.1 1021.5 0.0
01/02:00am 6.9 6.1 6.3 96 0.3 CALM 0 0 0 0 1022.0 1021.4 0.0
01/01:30am 7.0 6.2 6.4 96 0.3 CALM 0 0 0 0 1022.0 1021.4 0.0
01/01:00am 7.5 6.8 6.9 96 0.3 CALM 0 0 0 0 1021.9 1021.3 0.0
01/12:30am 7.6 6.9 6.9 95 0.3 CALM 0 0 0 0 1022.0 1021.4 0.0
01/12:00am 7.5 6.8 6.8 95 0.3 CALM 0 0 0 0 1022.1 1021.5 0.0
 
Date/Time
WST
Temp
°C
App
Temp
°C
Dew
Point
Rel
Hum
%
Delta-T
°C
Wind Press
QNH
hPa
Press
MSL
hPa
Rain
since 9 am
mm
Dir
 
Spd
km/h
Gust
km/h
Spd
kts
Gust
kts
30/11:30pm 8.2 7.5 7.1 93 0.5 CALM 0 0 0 0 1022.0 1021.4 0.0
30/11:00pm 8.8 8.2 7.4 91 0.7 CALM 0 0 0 0 1022.0 1021.4 0.0
30/10:30pm 9.3 8.4 7.6 89 0.8 SSE 2 9 1 5 1022.3 1021.7 0.0
30/10:00pm 9.2 8.6 7.5 89 0.8 CALM 0 0 0 0 1022.4 1021.8 0.0
30/09:30pm 9.7 7.5 8.0 89 0.8 NE 9 11 5 6 1022.4 1021.8 0.0
30/09:00pm 9.6 8.4 8.2 91 0.7 NE 4 7 2 4 1022.3 1021.7 0.0
30/08:30pm 9.1 8.5 7.5 90 0.8 CALM 0 0 0 0 1022.2 1021.6 0.0
30/08:00pm 9.6 9.0 7.5 87 1.0 CALM 0 0 0 0 1022.0 1021.4 0.0
30/07:30pm 9.7 9.1 7.6 87 1.0 CALM 0 0 0 0 1021.7 1021.1 0.0
30/07:00pm 10.7 10.1 7.6 81 1.5 CALM 0 0 0 0 1021.5 1020.9 0.0
30/06:30pm 12.4 12.0 8.1 75 2.1 CALM 0 0 0 0 1021.2 1020.6 0.0
30/06:00pm 13.5 12.2 5.9 60 3.6 S 2 6 1 3 1021.0 1020.4 0.0
30/05:30pm 14.3 11.8 6.4 59 3.8 S 9 11 5 6 1020.8 1020.2 0.0
30/05:00pm 15.4 11.9 5.3 51 4.8 SW 13 17 7 9 1020.7 1020.1 0.0
30/04:30pm 15.9 11.6 5.2 49 5.1 SSW 17 20 9 11 1020.6 1020.0 0.0
30/04:00pm 16.6 13.2 5.9 49 5.2 W 13 19 7 10 1020.5 1019.9 0.0
30/03:30pm 15.4 11.0 5.0 50 5.0 SSW 17 20 9 11 1020.4 1019.8 0.0
30/03:00pm 15.7 11.7 5.0 49 5.1 SSW 15 19 8 10 1020.2 1019.5 0.0
30/02:30pm 16.6 13.2 5.9 49 5.2 SW 13 20 7 11 1020.1 1019.4 0.0
30/02:00pm 16.0 11.7 5.3 49 5.1 SSW 17 22 9 12 1020.1 1019.4 0.0
30/01:30pm 15.7 12.2 5.6 51 4.9 S 13 20 7 11 1020.3 1019.7 0.0
30/01:00pm 15.6 11.7 5.2 50 5.0 S 15 22 8 12 1020.4 1019.8 0.0
30/12:30pm 15.9 12.6 6.3 53 4.7 SSW 13 20 7 11 1020.7 1020.1 0.0
30/12:00pm 16.7 13.7 7.6 55 4.6 SSE 13 19 7 10 1021.0 1020.4 0.0
30/11:30am 15.0 11.2 6.0 55 4.4 S 15 24 8 13 1021.3 1020.7 0.0

Other Formats:

Comma delimited format used in spreadsheet applications
http://www.bom.gov.au/fwo/IDW60801/IDW60801.95625.axf

JavaScript Object Notation format (JSON) in row-major order
http://www.bom.gov.au/fwo/IDW60801/IDW60801.95625.json